This is the latest recevied weather packets stored in our database for station/object OK2ZAW-19. If no packets are shown the sender has not sent any weather packets the latest 10 day(s).
| Time | Temp. | Humidity | Pressure | Rain* | Wind** | Luminosity | Snow |
|---|---|---|---|---|---|---|---|
| 1777826591 | 23.89° C | 30% | 1015.8 hPa | - | - | 337 W/m² | - |
| 1777826279 | 23.89° C | 30% | 1015.8 hPa | - | - | 337 W/m² | - |
| 1777825967 | 25° C | 29% | 1015.9 hPa | - | - | 337 W/m² | - |
| 1777825655 | 25° C | 29% | 1015.9 hPa | - | - | 337 W/m² | - |
| 1777825032 | 25° C | 29% | 1015.9 hPa | - | - | 337 W/m² | - |
| 1777824719 | 25° C | 29% | 1016 hPa | - | - | 337 W/m² | - |
| 1777824408 | 25.56° C | 29% | 1015.9 hPa | - | - | 337 W/m² | - |
| 1777824096 | 25° C | 28% | 1016 hPa | - | - | 337 W/m² | - |
| 1777823783 | 25.56° C | 28% | 1015.9 hPa | - | - | 337 W/m² | - |
| 1777823471 | 25° C | 28% | 1015.9 hPa | - | - | 337 W/m² | - |
| 1777823159 | 25° C | 28% | 1016 hPa | - | - | 337 W/m² | - |
| 1777822847 | 25.56° C | 28% | 1016.1 hPa | - | - | 337 W/m² | - |
| 1777822535 | 25.56° C | 28% | 1016.1 hPa | - | - | 338 W/m² | - |
| 1777822223 | 26.11° C | 28% | 1016.1 hPa | - | - | 337 W/m² | - |
| 1777821911 | 26.11° C | 28% | 1016.1 hPa | - | - | 337 W/m² | - |
| 1777821287 | 25° C | 28% | 1016.3 hPa | - | - | 337 W/m² | - |
| 1777820975 | 25.56° C | 30% | 1016.2 hPa | - | - | 337 W/m² | - |
| 1777820662 | 25.56° C | 28% | 1016.3 hPa | - | - | 337 W/m² | - |
| 1777820350 | 25.56° C | 27% | 1016.3 hPa | - | - | 337 W/m² | - |
| 1777819414 | 25° C | 30% | 1016.5 hPa | - | - | 337 W/m² | - |
| 1777818790 | 25° C | 29% | 1016.6 hPa | - | - | 337 W/m² | - |
| 1777818477 | 26.11° C | 29% | 1016.4 hPa | - | - | 337 W/m² | - |
| 1777818165 | 26.11° C | 29% | 1016.6 hPa | - | - | 338 W/m² | - |
| 1777817853 | 25.56° C | 29% | 1016.6 hPa | - | - | 337 W/m² | - |
| 1777817541 | 25.56° C | 29% | 1016.7 hPa | - | - | 337 W/m² | - |
* Rain since midnight (hover to see other rain measurements)
** Current wind speed in m/s (hover to see current wind gust speed)